sensor_id;sensor_type;location;lat;lon;timestamp;temperature;humidity
20487;DHT22;10402;49.012;8.370;2023-03-03T00:01:54;4.90;70.60
20487;DHT22;10402;49.012;8.370;2023-03-03T00:04:20;4.90;70.90
20487;DHT22;10402;49.012;8.370;2023-03-03T00:06:46;4.90;70.90
20487;DHT22;10402;49.012;8.370;2023-03-03T00:09:11;4.90;71.00
20487;DHT22;10402;49.012;8.370;2023-03-03T00:11:37;4.90;70.90
20487;DHT22;10402;49.012;8.370;2023-03-03T00:14:09;4.80;70.80
20487;DHT22;10402;49.012;8.370;2023-03-03T00:16:38;4.80;70.90
20487;DHT22;10402;49.012;8.370;2023-03-03T00:19:14;4.80;71.00
20487;DHT22;10402;49.012;8.370;2023-03-03T00:21:46;4.80;71.00
20487;DHT22;10402;49.012;8.370;2023-03-03T00:24:26;4.80;71.30
20487;DHT22;10402;49.012;8.370;2023-03-03T00:27:01;4.80;71.10
20487;DHT22;10402;49.012;8.370;2023-03-03T00:29:39;4.80;71.10
20487;DHT22;10402;49.012;8.370;2023-03-03T00:34:40;4.80;71.10
20487;DHT22;10402;49.012;8.370;2023-03-03T00:39:44;4.80;71.20
20487;DHT22;10402;49.012;8.370;2023-03-03T00:42:14;4.70;71.40
20487;DHT22;10402;49.012;8.370;2023-03-03T00:44:43;4.80;71.20
20487;DHT22;10402;49.012;8.370;2023-03-03T00:47:27;4.80;71.20
20487;DHT22;10402;49.012;8.370;2023-03-03T00:50:16;4.70;71.20
20487;DHT22;10402;49.012;8.370;2023-03-03T00:52:57;4.70;71.20
20487;DHT22;10402;49.012;8.370;2023-03-03T00:55:23;4.70;71.40
20487;DHT22;10402;49.012;8.370;2023-03-03T00:57:48;4.70;71.50
20487;DHT22;10402;49.012;8.370;2023-03-03T01:00:14;4.70;71.40
20487;DHT22;10402;49.012;8.370;2023-03-03T01:02:40;4.70;71.40
20487;DHT22;10402;49.012;8.370;2023-03-03T01:05:05;4.70;71.50
20487;DHT22;10402;49.012;8.370;2023-03-03T01:07:31;4.60;71.40
20487;DHT22;10402;49.012;8.370;2023-03-03T01:09:56;4.60;71.50
20487;DHT22;10402;49.012;8.370;2023-03-03T01:12:23;4.60;71.50
20487;DHT22;10402;49.012;8.370;2023-03-03T01:14:48;4.60;71.50
20487;DHT22;10402;49.012;8.370;2023-03-03T01:17:17;4.60;71.60
20487;DHT22;10402;49.012;8.370;2023-03-03T01:19:43;4.60;71.70
20487;DHT22;10402;49.012;8.370;2023-03-03T01:22:08;4.60;71.70
20487;DHT22;10402;49.012;8.370;2023-03-03T01:24:34;4.60;71.70
20487;DHT22;10402;49.012;8.370;2023-03-03T01:26:59;4.50;71.60
20487;DHT22;10402;49.012;8.370;2023-03-03T01:29:25;4.50;71.70
20487;DHT22;10402;49.012;8.370;2023-03-03T01:31:50;4.60;71.90
20487;DHT22;10402;49.012;8.370;2023-03-03T01:34:15;4.60;71.90
20487;DHT22;10402;49.012;8.370;2023-03-03T01:36:41;4.50;71.70
20487;DHT22;10402;49.012;8.370;2023-03-03T01:39:06;4.50;71.90
20487;DHT22;10402;49.012;8.370;2023-03-03T01:41:32;4.50;71.90
20487;DHT22;10402;49.012;8.370;2023-03-03T01:43:58;4.50;72.00
20487;DHT22;10402;49.012;8.370;2023-03-03T01:51:49;4.50;72.10
20487;DHT22;10402;49.012;8.370;2023-03-03T01:54:29;4.50;72.10
20487;DHT22;10402;49.012;8.370;2023-03-03T01:57:01;4.50;72.10
20487;DHT22;10402;49.012;8.370;2023-03-03T01:59:32;4.50;72.10
20487;DHT22;10402;49.012;8.370;2023-03-03T02:01:58;4.50;72.10
20487;DHT22;10402;49.012;8.370;2023-03-03T02:04:24;4.50;72.10
20487;DHT22;10402;49.012;8.370;2023-03-03T02:06:55;4.50;72.20
20487;DHT22;10402;49.012;8.370;2023-03-03T02:09:37;4.40;72.10
20487;DHT22;10402;49.012;8.370;2023-03-03T02:12:07;4.40;72.20
20487;DHT22;10402;49.012;8.370;2023-03-03T02:14:34;4.40;72.50
20487;DHT22;10402;49.012;8.370;2023-03-03T02:17:00;4.40;72.50
20487;DHT22;10402;49.012;8.370;2023-03-03T02:19:39;4.30;72.40
20487;DHT22;10402;49.012;8.370;2023-03-03T02:22:07;4.40;72.50
20487;DHT22;10402;49.012;8.370;2023-03-03T02:24:44;4.30;72.60
20487;DHT22;10402;49.012;8.370;2023-03-03T02:27:11;4.30;72.70
20487;DHT22;10402;49.012;8.370;2023-03-03T02:29:38;4.30;72.70
20487;DHT22;10402;49.012;8.370;2023-03-03T02:32:03;4.30;72.60
20487;DHT22;10402;49.012;8.370;2023-03-03T02:34:29;4.30;72.70
20487;DHT22;10402;49.012;8.370;2023-03-03T02:36:54;4.30;72.70
20487;DHT22;10402;49.012;8.370;2023-03-03T02:39:25;4.30;72.70
20487;DHT22;10402;49.012;8.370;2023-03-03T02:44:30;4.30;72.50
20487;DHT22;10402;49.012;8.370;2023-03-03T02:46:57;4.30;72.40
20487;DHT22;10402;49.012;8.370;2023-03-03T02:49:28;4.30;72.40
20487;DHT22;10402;49.012;8.370;2023-03-03T02:51:55;4.30;72.20
20487;DHT22;10402;49.012;8.370;2023-03-03T02:54:22;4.30;72.00
20487;DHT22;10402;49.012;8.370;2023-03-03T02:56:49;4.30;72.00
20487;DHT22;10402;49.012;8.370;2023-03-03T02:59:15;4.30;72.00
20487;DHT22;10402;49.012;8.370;2023-03-03T03:01:41;4.30;72.00
20487;DHT22;10402;49.012;8.370;2023-03-03T03:04:18;4.30;71.90
20487;DHT22;10402;49.012;8.370;2023-03-03T03:06:45;4.30;71.80
20487;DHT22;10402;49.012;8.370;2023-03-03T03:09:12;4.20;71.60
20487;DHT22;10402;49.012;8.370;2023-03-03T03:11:38;4.20;71.50
20487;DHT22;10402;49.012;8.370;2023-03-03T03:14:05;4.20;71.50
20487;DHT22;10402;49.012;8.370;2023-03-03T03:16:31;4.20;71.40
20487;DHT22;10402;49.012;8.370;2023-03-03T03:18:57;4.20;71.30
20487;DHT22;10402;49.012;8.370;2023-03-03T03:21:23;4.20;71.30
20487;DHT22;10402;49.012;8.370;2023-03-03T03:23:49;4.10;71.10
20487;DHT22;10402;49.012;8.370;2023-03-03T03:26:14;4.10;71.10
20487;DHT22;10402;49.012;8.370;2023-03-03T03:28:40;4.10;70.90
20487;DHT22;10402;49.012;8.370;2023-03-03T03:31:07;4.10;70.80
20487;DHT22;10402;49.012;8.370;2023-03-03T03:33:33;4.10;70.60
20487;DHT22;10402;49.012;8.370;2023-03-03T03:35:59;4.10;70.50
20487;DHT22;10402;49.012;8.370;2023-03-03T03:38:25;4.10;70.50
20487;DHT22;10402;49.012;8.370;2023-03-03T03:40:52;4.10;70.40
20487;DHT22;10402;49.012;8.370;2023-03-03T03:43:17;4.00;70.20
20487;DHT22;10402;49.012;8.370;2023-03-03T03:45:44;4.00;70.20
20487;DHT22;10402;49.012;8.370;2023-03-03T03:48:09;4.00;70.20
20487;DHT22;10402;49.012;8.370;2023-03-03T03:50:35;4.00;70.10
20487;DHT22;10402;49.012;8.370;2023-03-03T03:53:01;3.90;70.10
20487;DHT22;10402;49.012;8.370;2023-03-03T03:55:27;3.90;70.10
20487;DHT22;10402;49.012;8.370;2023-03-03T03:57:54;3.80;70.00
20487;DHT22;10402;49.012;8.370;2023-03-03T04:00:19;3.80;70.00
20487;DHT22;10402;49.012;8.370;2023-03-03T04:02:45;3.80;70.00
20487;DHT22;10402;49.012;8.370;2023-03-03T04:05:10;3.80;70.10
20487;DHT22;10402;49.012;8.370;2023-03-03T04:07:36;3.70;70.00
20487;DHT22;10402;49.012;8.370;2023-03-03T04:10:02;3.70;70.00
20487;DHT22;10402;49.012;8.370;2023-03-03T04:12:27;3.70;70.00
20487;DHT22;10402;49.012;8.370;2023-03-03T04:14:53;3.60;69.80
20487;DHT22;10402;49.012;8.370;2023-03-03T04:17:20;3.50;70.00
20487;DHT22;10402;49.012;8.370;2023-03-03T04:19:47;3.50;70.30
20487;DHT22;10402;49.012;8.370;2023-03-03T04:22:12;3.50;70.40
20487;DHT22;10402;49.012;8.370;2023-03-03T04:24:40;3.50;70.50
20487;DHT22;10402;49.012;8.370;2023-03-03T04:27:06;3.50;70.60
20487;DHT22;10402;49.012;8.370;2023-03-03T04:29:33;3.50;70.60
20487;DHT22;10402;49.012;8.370;2023-03-03T04:31:58;3.50;70.60
20487;DHT22;10402;49.012;8.370;2023-03-03T04:34:24;3.50;70.60
20487;DHT22;10402;49.012;8.370;2023-03-03T04:36:49;3.40;70.50
20487;DHT22;10402;49.012;8.370;2023-03-03T04:39:15;3.40;70.70
20487;DHT22;10402;49.012;8.370;2023-03-03T04:41:40;3.40;70.90
20487;DHT22;10402;49.012;8.370;2023-03-03T04:44:06;3.30;71.00
20487;DHT22;10402;49.012;8.370;2023-03-03T04:46:31;3.30;71.10
20487;DHT22;10402;49.012;8.370;2023-03-03T04:48:57;3.30;71.30
20487;DHT22;10402;49.012;8.370;2023-03-03T04:51:22;3.30;71.40
20487;DHT22;10402;49.012;8.370;2023-03-03T04:53:48;3.30;71.70
20487;DHT22;10402;49.012;8.370;2023-03-03T04:56:13;3.20;71.80
20487;DHT22;10402;49.012;8.370;2023-03-03T04:58:39;3.20;71.90
20487;DHT22;10402;49.012;8.370;2023-03-03T05:01:05;3.20;71.90
20487;DHT22;10402;49.012;8.370;2023-03-03T05:03:31;3.10;71.80
20487;DHT22;10402;49.012;8.370;2023-03-03T05:05:56;3.10;72.10
20487;DHT22;10402;49.012;8.370;2023-03-03T05:08:22;3.10;72.20
20487;DHT22;10402;49.012;8.370;2023-03-03T05:10:52;3.10;72.30
20487;DHT22;10402;49.012;8.370;2023-03-03T05:13:17;3.20;72.40
20487;DHT22;10402;49.012;8.370;2023-03-03T05:15:48;3.20;72.50
20487;DHT22;10402;49.012;8.370;2023-03-03T05:18:14;3.10;72.40
20487;DHT22;10402;49.012;8.370;2023-03-03T05:20:39;3.20;72.60
20487;DHT22;10402;49.012;8.370;2023-03-03T05:23:06;3.10;72.50
20487;DHT22;10402;49.012;8.370;2023-03-03T05:25:31;3.10;72.60
20487;DHT22;10402;49.012;8.370;2023-03-03T05:27:57;3.10;72.60
20487;DHT22;10402;49.012;8.370;2023-03-03T05:30:23;3.10;72.90
20487;DHT22;10402;49.012;8.370;2023-03-03T05:32:49;3.00;72.90
20487;DHT22;10402;49.012;8.370;2023-03-03T05:35:14;3.00;73.00
20487;DHT22;10402;49.012;8.370;2023-03-03T05:37:40;3.00;73.20
20487;DHT22;10402;49.012;8.370;2023-03-03T05:40:11;3.00;73.20
20487;DHT22;10402;49.012;8.370;2023-03-03T05:42:37;2.90;73.20
20487;DHT22;10402;49.012;8.370;2023-03-03T05:45:03;2.80;73.30
20487;DHT22;10402;49.012;8.370;2023-03-03T05:47:29;2.70;73.40
20487;DHT22;10402;49.012;8.370;2023-03-03T05:49:54;2.70;73.80
20487;DHT22;10402;49.012;8.370;2023-03-03T05:52:20;2.70;74.00
20487;DHT22;10402;49.012;8.370;2023-03-03T05:54:46;2.70;74.00
20487;DHT22;10402;49.012;8.370;2023-03-03T05:57:11;2.70;74.10
20487;DHT22;10402;49.012;8.370;2023-03-03T05:59:37;2.60;74.00
20487;DHT22;10402;49.012;8.370;2023-03-03T06:02:02;2.60;74.10
20487;DHT22;10402;49.012;8.370;2023-03-03T06:04:28;2.50;74.10
20487;DHT22;10402;49.012;8.370;2023-03-03T06:06:53;2.50;74.30
20487;DHT22;10402;49.012;8.370;2023-03-03T06:09:19;2.50;74.40
20487;DHT22;10402;49.012;8.370;2023-03-03T06:11:45;2.50;74.40
20487;DHT22;10402;49.012;8.370;2023-03-03T06:14:10;2.50;74.40
20487;DHT22;10402;49.012;8.370;2023-03-03T06:16:36;2.50;74.50
20487;DHT22;10402;49.012;8.370;2023-03-03T06:19:02;2.50;74.50
20487;DHT22;10402;49.012;8.370;2023-03-03T06:21:27;2.50;74.30
20487;DHT22;10402;49.012;8.370;2023-03-03T06:23:53;2.50;74.40
20487;DHT22;10402;49.012;8.370;2023-03-03T06:26:18;2.60;74.60
20487;DHT22;10402;49.012;8.370;2023-03-03T06:28:44;2.70;74.60
20487;DHT22;10402;49.012;8.370;2023-03-03T06:31:10;2.80;74.40
20487;DHT22;10402;49.012;8.370;2023-03-03T06:33:35;2.80;74.30
20487;DHT22;10402;49.012;8.370;2023-03-03T06:36:03;2.90;74.00
20487;DHT22;10402;49.012;8.370;2023-03-03T06:38:28;2.80;73.70
20487;DHT22;10402;49.012;8.370;2023-03-03T06:40:54;2.80;73.60
20487;DHT22;10402;49.012;8.370;2023-03-03T06:43:19;2.80;73.60
20487;DHT22;10402;49.012;8.370;2023-03-03T06:45:45;2.80;73.80
20487;DHT22;10402;49.012;8.370;2023-03-03T06:48:11;2.70;73.70
20487;DHT22;10402;49.012;8.370;2023-03-03T06:50:36;2.70;73.60
20487;DHT22;10402;49.012;8.370;2023-03-03T06:53:13;2.70;73.70
20487;DHT22;10402;49.012;8.370;2023-03-03T06:55:39;2.60;73.70
20487;DHT22;10402;49.012;8.370;2023-03-03T06:58:11;2.60;74.30
20487;DHT22;10402;49.012;8.370;2023-03-03T07:00:41;2.60;73.70
20487;DHT22;10402;49.012;8.370;2023-03-03T07:03:16;2.60;73.70
20487;DHT22;10402;49.012;8.370;2023-03-03T07:05:42;2.50;73.40
20487;DHT22;10402;49.012;8.370;2023-03-03T07:08:17;2.60;73.70
20487;DHT22;10402;49.012;8.370;2023-03-03T07:10:43;2.60;73.40
20487;DHT22;10402;49.012;8.370;2023-03-03T07:15:47;2.60;73.40
20487;DHT22;10402;49.012;8.370;2023-03-03T07:18:39;2.60;73.30
20487;DHT22;10402;49.012;8.370;2023-03-03T07:21:18;2.70;73.30
20487;DHT22;10402;49.012;8.370;2023-03-03T07:23:46;2.70;73.20
20487;DHT22;10402;49.012;8.370;2023-03-03T07:26:14;2.60;73.10
20487;DHT22;10402;49.012;8.370;2023-03-03T07:28:42;2.60;73.40
20487;DHT22;10402;49.012;8.370;2023-03-03T07:31:38;2.70;73.50
20487;DHT22;10402;49.012;8.370;2023-03-03T07:34:25;2.70;73.50
20487;DHT22;10402;49.012;8.370;2023-03-03T07:36:57;2.80;73.60
20487;DHT22;10402;49.012;8.370;2023-03-03T07:39:37;2.70;73.50
20487;DHT22;10402;49.012;8.370;2023-03-03T07:44:50;3.00;73.50
20487;DHT22;10402;49.012;8.370;2023-03-03T07:47:29;3.00;73.50
20487;DHT22;10402;49.012;8.370;2023-03-03T07:49:57;3.10;73.60
20487;DHT22;10402;49.012;8.370;2023-03-03T07:52:39;3.20;73.70
20487;DHT22;10402;49.012;8.370;2023-03-03T07:55:35;3.20;73.60
20487;DHT22;10402;49.012;8.370;2023-03-03T08:03:15;3.20;73.70
20487;DHT22;10402;49.012;8.370;2023-03-03T08:05:51;3.20;73.90
20487;DHT22;10402;49.012;8.370;2023-03-03T08:08:35;3.20;73.90
20487;DHT22;10402;49.012;8.370;2023-03-03T08:11:07;3.20;73.90
20487;DHT22;10402;49.012;8.370;2023-03-03T08:18:36;3.20;74.60
20487;DHT22;10402;49.012;8.370;2023-03-03T08:21:19;3.20;74.50
20487;DHT22;10402;49.012;8.370;2023-03-03T08:23:45;3.30;74.30
20487;DHT22;10402;49.012;8.370;2023-03-03T08:26:10;3.40;74.30
20487;DHT22;10402;49.012;8.370;2023-03-03T08:28:38;3.40;74.10
20487;DHT22;10402;49.012;8.370;2023-03-03T08:31:04;3.30;74.60
20487;DHT22;10402;49.012;8.370;2023-03-03T08:33:29;3.30;73.80
20487;DHT22;10402;49.012;8.370;2023-03-03T08:35:55;3.20;74.00
20487;DHT22;10402;49.012;8.370;2023-03-03T08:38:21;3.20;74.10
20487;DHT22;10402;49.012;8.370;2023-03-03T08:40:47;3.30;74.30
20487;DHT22;10402;49.012;8.370;2023-03-03T08:43:13;3.40;74.20
20487;DHT22;10402;49.012;8.370;2023-03-03T08:45:45;3.40;73.90
20487;DHT22;10402;49.012;8.370;2023-03-03T08:48:11;3.40;73.90
20487;DHT22;10402;49.012;8.370;2023-03-03T08:50:37;3.40;73.80
20487;DHT22;10402;49.012;8.370;2023-03-03T08:53:03;3.50;73.90
20487;DHT22;10402;49.012;8.370;2023-03-03T08:55:29;3.60;73.80
20487;DHT22;10402;49.012;8.370;2023-03-03T08:57:55;3.70;73.60
20487;DHT22;10402;49.012;8.370;2023-03-03T09:00:21;3.70;73.40
20487;DHT22;10402;49.012;8.370;2023-03-03T09:02:47;3.80;73.40
20487;DHT22;10402;49.012;8.370;2023-03-03T09:05:14;3.90;73.30
20487;DHT22;10402;49.012;8.370;2023-03-03T09:07:41;3.90;73.20
20487;DHT22;10402;49.012;8.370;2023-03-03T09:10:07;3.90;73.20
20487;DHT22;10402;49.012;8.370;2023-03-03T09:12:35;4.00;73.20
20487;DHT22;10402;49.012;8.370;2023-03-03T09:15:21;4.10;73.10
20487;DHT22;10402;49.012;8.370;2023-03-03T09:17:48;4.20;72.90
20487;DHT22;10402;49.012;8.370;2023-03-03T09:22:59;4.20;72.80
20487;DHT22;10402;49.012;8.370;2023-03-03T09:25:41;4.30;72.90
20487;DHT22;10402;49.012;8.370;2023-03-03T09:28:28;4.40;72.90
20487;DHT22;10402;49.012;8.370;2023-03-03T09:30:56;4.50;72.80
20487;DHT22;10402;49.012;8.370;2023-03-03T09:33:37;4.50;72.60
20487;DHT22;10402;49.012;8.370;2023-03-03T09:38:52;4.80;72.50
20487;DHT22;10402;49.012;8.370;2023-03-03T09:41:52;4.80;72.00
20487;DHT22;10402;49.012;8.370;2023-03-03T09:49:48;5.00;71.80
20487;DHT22;10402;49.012;8.370;2023-03-03T09:52:41;5.10;71.70
20487;DHT22;10402;49.012;8.370;2023-03-03T09:55:35;5.10;71.60
20487;DHT22;10402;49.012;8.370;2023-03-03T09:58:14;5.20;71.50
20487;DHT22;10402;49.012;8.370;2023-03-03T10:00:58;5.30;71.40
20487;DHT22;10402;49.012;8.370;2023-03-03T10:16:55;5.70;70.50
20487;DHT22;10402;49.012;8.370;2023-03-03T10:19:40;5.80;70.60
20487;DHT22;10402;49.012;8.370;2023-03-03T10:22:20;5.90;70.50
20487;DHT22;10402;49.012;8.370;2023-03-03T10:24:59;6.00;70.20
20487;DHT22;10402;49.012;8.370;2023-03-03T10:27:48;6.10;70.10
20487;DHT22;10402;49.012;8.370;2023-03-03T10:30:46;6.10;69.80
20487;DHT22;10402;49.012;8.370;2023-03-03T10:33:58;6.20;69.80
20487;DHT22;10402;49.012;8.370;2023-03-03T10:36:29;6.30;69.60
20487;DHT22;10402;49.012;8.370;2023-03-03T10:42:30;6.40;69.00
20487;DHT22;10402;49.012;8.370;2023-03-03T10:45:17;6.40;68.80
20487;DHT22;10402;49.012;8.370;2023-03-03T10:50:29;6.50;68.60
20487;DHT22;10402;49.012;8.370;2023-03-03T10:55:43;6.50;68.40
20487;DHT22;10402;49.012;8.370;2023-03-03T11:01:29;6.70;68.50
20487;DHT22;10402;49.012;8.370;2023-03-03T11:34:37;7.30;66.80
20487;DHT22;10402;49.012;8.370;2023-03-03T11:37:10;7.30;66.60
20487;DHT22;10402;49.012;8.370;2023-03-03T11:39:40;7.30;66.30
20487;DHT22;10402;49.012;8.370;2023-03-03T11:45:17;7.40;66.40
20487;DHT22;10402;49.012;8.370;2023-03-03T11:48:07;7.50;66.50
20487;DHT22;10402;49.012;8.370;2023-03-03T11:50:44;7.50;66.20
20487;DHT22;10402;49.012;8.370;2023-03-03T11:55:55;7.50;65.70
20487;DHT22;10402;49.012;8.370;2023-03-03T11:58:24;7.50;65.70
20487;DHT22;10402;49.012;8.370;2023-03-03T12:01:39;7.50;65.60
20487;DHT22;10402;49.012;8.370;2023-03-03T12:04:13;7.50;65.80
20487;DHT22;10402;49.012;8.370;2023-03-03T12:07:06;7.60;65.50
20487;DHT22;10402;49.012;8.370;2023-03-03T12:12:37;7.70;65.40
20487;DHT22;10402;49.012;8.370;2023-03-03T12:21:19;7.80;64.70
20487;DHT22;10402;49.012;8.370;2023-03-03T12:29:45;7.80;64.80
20487;DHT22;10402;49.012;8.370;2023-03-03T12:37:45;7.90;64.50
20487;DHT22;10402;49.012;8.370;2023-03-03T12:40:13;8.00;64.60
20487;DHT22;10402;49.012;8.370;2023-03-03T12:48:03;8.10;64.50
20487;DHT22;10402;49.012;8.370;2023-03-03T12:50:40;8.20;64.60
20487;DHT22;10402;49.012;8.370;2023-03-03T12:59:02;8.40;64.40
20487;DHT22;10402;49.012;8.370;2023-03-03T13:01:42;8.40;64.10
20487;DHT22;10402;49.012;8.370;2023-03-03T13:04:33;8.40;64.00
20487;DHT22;10402;49.012;8.370;2023-03-03T13:12:29;8.50;64.00
20487;DHT22;10402;49.012;8.370;2023-03-03T13:15:02;8.50;64.00
20487;DHT22;10402;49.012;8.370;2023-03-03T13:20:27;8.60;63.80
20487;DHT22;10402;49.012;8.370;2023-03-03T13:23:12;8.60;63.60
20487;DHT22;10402;49.012;8.370;2023-03-03T13:26:05;8.60;63.60
20487;DHT22;10402;49.012;8.370;2023-03-03T13:28:41;8.50;63.30
20487;DHT22;10402;49.012;8.370;2023-03-03T13:31:15;8.50;63.40
20487;DHT22;10402;49.012;8.370;2023-03-03T13:33:51;8.60;63.60
20487;DHT22;10402;49.012;8.370;2023-03-03T13:36:18;8.70;63.50
20487;DHT22;10402;49.012;8.370;2023-03-03T13:38:59;8.60;63.20
20487;DHT22;10402;49.012;8.370;2023-03-03T13:44:24;8.70;63.00
20487;DHT22;10402;49.012;8.370;2023-03-03T13:49:34;8.80;63.20
20487;DHT22;10402;49.012;8.370;2023-03-03T13:52:05;8.80;63.10
20487;DHT22;10402;49.012;8.370;2023-03-03T14:05:29;9.00;63.00
20487;DHT22;10402;49.012;8.370;2023-03-03T14:10:34;9.00;62.90
20487;DHT22;10402;49.012;8.370;2023-03-03T14:13:07;9.10;63.00
20487;DHT22;10402;49.012;8.370;2023-03-03T14:15:53;9.10;62.90
20487;DHT22;10402;49.012;8.370;2023-03-03T14:18:32;9.20;62.80
20487;DHT22;10402;49.012;8.370;2023-03-03T14:21:10;9.20;62.70
20487;DHT22;10402;49.012;8.370;2023-03-03T14:26:11;9.20;62.30
20487;DHT22;10402;49.012;8.370;2023-03-03T14:28:42;9.20;62.20
20487;DHT22;10402;49.012;8.370;2023-03-03T14:31:28;9.20;62.30
20487;DHT22;10402;49.012;8.370;2023-03-03T14:34:13;9.30;62.30
20487;DHT22;10402;49.012;8.370;2023-03-03T14:36:41;9.30;62.40
20487;DHT22;10402;49.012;8.370;2023-03-03T14:39:33;9.40;62.40
20487;DHT22;10402;49.012;8.370;2023-03-03T14:42:00;9.40;62.20
20487;DHT22;10402;49.012;8.370;2023-03-03T14:49:36;9.40;62.10
20487;DHT22;10402;49.012;8.370;2023-03-03T14:52:17;9.40;61.90
20487;DHT22;10402;49.012;8.370;2023-03-03T14:54:45;9.40;61.90
20487;DHT22;10402;49.012;8.370;2023-03-03T14:57:15;9.40;62.00
20487;DHT22;10402;49.012;8.370;2023-03-03T15:00:05;9.40;62.00
20487;DHT22;10402;49.012;8.370;2023-03-03T15:05:16;9.40;61.70
20487;DHT22;10402;49.012;8.370;2023-03-03T15:07:43;9.40;61.70
20487;DHT22;10402;49.012;8.370;2023-03-03T15:10:10;9.40;61.80
20487;DHT22;10402;49.012;8.370;2023-03-03T15:12:39;9.50;62.00
20487;DHT22;10402;49.012;8.370;2023-03-03T15:23:00;9.50;61.80
20487;DHT22;10402;49.012;8.370;2023-03-03T15:25:53;9.40;61.70
20487;DHT22;10402;49.012;8.370;2023-03-03T15:28:31;9.50;61.90
20487;DHT22;10402;49.012;8.370;2023-03-03T15:36:35;9.50;61.90
20487;DHT22;10402;49.012;8.370;2023-03-03T15:42:33;9.50;61.50
20487;DHT22;10402;49.012;8.370;2023-03-03T15:50:25;9.50;61.50
20487;DHT22;10402;49.012;8.370;2023-03-03T15:56:47;9.40;61.50
20487;DHT22;10402;49.012;8.370;2023-03-03T16:04:16;9.40;61.30
20487;DHT22;10402;49.012;8.370;2023-03-03T16:07:05;9.40;61.30
20487;DHT22;10402;49.012;8.370;2023-03-03T16:12:53;9.50;61.50
20487;DHT22;10402;49.012;8.370;2023-03-03T16:15:45;9.50;61.50
20487;DHT22;10402;49.012;8.370;2023-03-03T16:18:21;9.40;61.50
20487;DHT22;10402;49.012;8.370;2023-03-03T16:31:48;9.30;61.50
20487;DHT22;10402;49.012;8.370;2023-03-03T16:37:39;9.30;61.70
20487;DHT22;10402;49.012;8.370;2023-03-03T16:43:34;9.30;61.80
20487;DHT22;10402;49.012;8.370;2023-03-03T16:46:53;9.20;61.60
20487;DHT22;10402;49.012;8.370;2023-03-03T16:51:45;9.10;61.50
20487;DHT22;10402;49.012;8.370;2023-03-03T17:00:25;9.10;62.00
20487;DHT22;10402;49.012;8.370;2023-03-03T17:11:08;8.90;62.00
20487;DHT22;10402;49.012;8.370;2023-03-03T17:14:11;8.90;62.00
20487;DHT22;10402;49.012;8.370;2023-03-03T17:19:44;8.90;62.00
20487;DHT22;10402;49.012;8.370;2023-03-03T17:22:28;8.90;62.00
20487;DHT22;10402;49.012;8.370;2023-03-03T17:25:17;8.90;62.00
20487;DHT22;10402;49.012;8.370;2023-03-03T17:30:20;8.80;61.90
20487;DHT22;10402;49.012;8.370;2023-03-03T17:43:48;8.70;61.90
20487;DHT22;10402;49.012;8.370;2023-03-03T17:46:49;8.60;61.90
20487;DHT22;10402;49.012;8.370;2023-03-03T17:52:40;8.50;61.90
20487;DHT22;10402;49.012;8.370;2023-03-03T17:57:56;8.50;61.60
20487;DHT22;10402;49.012;8.370;2023-03-03T18:06:18;8.50;61.70
20487;DHT22;10402;49.012;8.370;2023-03-03T18:19:28;8.30;61.70
20487;DHT22;10402;49.012;8.370;2023-03-03T18:24:29;8.20;61.70
20487;DHT22;10402;49.012;8.370;2023-03-03T18:26:55;8.10;61.80
20487;DHT22;10402;49.012;8.370;2023-03-03T18:29:36;8.10;62.00
20487;DHT22;10402;49.012;8.370;2023-03-03T18:32:15;8.10;62.00
20487;DHT22;10402;49.012;8.370;2023-03-03T18:34:42;8.10;62.00
20487;DHT22;10402;49.012;8.370;2023-03-03T18:39:46;8.00;61.60
20487;DHT22;10402;49.012;8.370;2023-03-03T18:44:42;8.00;61.80
20487;DHT22;10402;49.012;8.370;2023-03-03T18:47:09;8.00;61.80
20487;DHT22;10402;49.012;8.370;2023-03-03T18:49:54;7.90;61.70
20487;DHT22;10402;49.012;8.370;2023-03-03T18:52:31;7.90;61.90
20487;DHT22;10402;49.012;8.370;2023-03-03T18:57:38;7.90;62.00
20487;DHT22;10402;49.012;8.370;2023-03-03T19:00:27;7.90;62.00
20487;DHT22;10402;49.012;8.370;2023-03-03T19:02:55;7.90;62.00
20487;DHT22;10402;49.012;8.370;2023-03-03T19:05:25;7.90;61.80
20487;DHT22;10402;49.012;8.370;2023-03-03T19:08:00;7.80;61.70
20487;DHT22;10402;49.012;8.370;2023-03-03T19:15:58;7.70;61.90
20487;DHT22;10402;49.012;8.370;2023-03-03T19:18:26;7.70;61.90
20487;DHT22;10402;49.012;8.370;2023-03-03T19:20:56;7.70;62.00
20487;DHT22;10402;49.012;8.370;2023-03-03T19:28:58;7.60;61.90
20487;DHT22;10402;49.012;8.370;2023-03-03T19:36:43;7.50;61.80
20487;DHT22;10402;49.012;8.370;2023-03-03T19:53:27;7.40;61.90
20487;DHT22;10402;49.012;8.370;2023-03-03T19:56:15;7.40;61.90
20487;DHT22;10402;49.012;8.370;2023-03-03T20:09:48;7.10;62.30
20487;DHT22;10402;49.012;8.370;2023-03-03T20:12:18;7.10;62.40
20487;DHT22;10402;49.012;8.370;2023-03-03T20:14:59;7.10;62.40
20487;DHT22;10402;49.012;8.370;2023-03-03T20:17:37;7.00;62.40
20487;DHT22;10402;49.012;8.370;2023-03-03T20:20:23;6.90;62.50
20487;DHT22;10402;49.012;8.370;2023-03-03T20:31:05;6.80;62.90
20487;DHT22;10402;49.012;8.370;2023-03-03T20:34:04;6.70;62.90
20487;DHT22;10402;49.012;8.370;2023-03-03T20:39:05;6.80;62.90
20487;DHT22;10402;49.012;8.370;2023-03-03T20:41:56;6.80;62.80
20487;DHT22;10402;49.012;8.370;2023-03-03T20:44:40;6.70;62.80
20487;DHT22;10402;49.012;8.370;2023-03-03T20:47:20;6.80;62.90
20487;DHT22;10402;49.012;8.370;2023-03-03T20:50:08;6.70;62.80
20487;DHT22;10402;49.012;8.370;2023-03-03T20:52:52;6.70;62.80
20487;DHT22;10402;49.012;8.370;2023-03-03T20:57:59;6.60;62.90
20487;DHT22;10402;49.012;8.370;2023-03-03T21:06:05;6.50;63.20
20487;DHT22;10402;49.012;8.370;2023-03-03T21:11:16;6.40;63.20
20487;DHT22;10402;49.012;8.370;2023-03-03T21:13:46;6.40;63.20
20487;DHT22;10402;49.012;8.370;2023-03-03T21:21:36;6.40;63.30
20487;DHT22;10402;49.012;8.370;2023-03-03T21:24:02;6.30;63.30
20487;DHT22;10402;49.012;8.370;2023-03-03T21:26:51;6.30;63.40
20487;DHT22;10402;49.012;8.370;2023-03-03T21:29:22;6.30;63.40
20487;DHT22;10402;49.012;8.370;2023-03-03T21:31:51;6.30;63.50
20487;DHT22;10402;49.012;8.370;2023-03-03T21:34:22;6.20;63.40
20487;DHT22;10402;49.012;8.370;2023-03-03T21:36:49;6.20;63.60
20487;DHT22;10402;49.012;8.370;2023-03-03T21:39:21;6.20;63.60
20487;DHT22;10402;49.012;8.370;2023-03-03T21:42:05;6.10;63.60
20487;DHT22;10402;49.012;8.370;2023-03-03T21:44:32;6.10;63.70
20487;DHT22;10402;49.012;8.370;2023-03-03T21:46:59;6.10;63.80
20487;DHT22;10402;49.012;8.370;2023-03-03T21:49:24;6.00;63.80
20487;DHT22;10402;49.012;8.370;2023-03-03T21:51:50;6.00;63.80
20487;DHT22;10402;49.012;8.370;2023-03-03T21:54:15;6.00;64.00
20487;DHT22;10402;49.012;8.370;2023-03-03T21:56:41;5.90;63.90
20487;DHT22;10402;49.012;8.370;2023-03-03T21:59:07;5.90;64.10
20487;DHT22;10402;49.012;8.370;2023-03-03T22:01:34;5.80;64.00
20487;DHT22;10402;49.012;8.370;2023-03-03T22:04:00;5.80;64.20
20487;DHT22;10402;49.012;8.370;2023-03-03T22:06:25;5.80;64.20
20487;DHT22;10402;49.012;8.370;2023-03-03T22:08:51;5.70;64.30
20487;DHT22;10402;49.012;8.370;2023-03-03T22:11:17;5.70;64.40